»·PEaware :: N17CZ KBUR-KFUL

N17CZ :: KBUR-KFUL

FLIGHT INFORMATION

Flight Status: Arrived
Operator: Privately registered:
United States
More flights under this callsign
Pilot: Sergio O. (36592)
Aircraft: CIRRUS SR-22 TURBO
(S22T)
More flights by this aircraft type
Origin: KBUR Bob Hope-Burbank
United States
Destination: KFUL Fullerton Mun
United States
More flights between these airports :: More routes between these airports
Route: VPLRB ITSME
File this flight plan on PilotEdge
Remarks:
Altitude:
(Current/Filed)
3,500ft
Speed:
(Current/Filed)
130kts
Departed: 23-Oct-21 06:32 PM
Arrived: 23-Oct-21 07:13 PM
Distance/Time
Traveled:
27nm/0:41
Distance/Time
To Go:
Arrived

Flight Plot

Page will automatically refresh every two minutes.

Flight plan parsing failed; only flown route is shown


Map Options




Map Legend


Flown Route
Filed Route
Departure Airport
Arrival Airport
Navaid (VOR, NDB)
Fix

Horizontal Profiles

Position Reports

Time Latitude Longitude Heading Altitude Ground
Speed
23-Oct-21 18:17 34.207788 -118.360976 69 749ft 0kts
23-Oct-21 18:18 34.207788 -118.360976 69 749ft 0kts
23-Oct-21 18:19 34.207788 -118.360976 69 749ft 0kts
23-Oct-21 18:20 34.207788 -118.360976 69 749ft 0kts
23-Oct-21 18:21 34.207788 -118.360976 69 749ft 0kts
23-Oct-21 18:22 34.207788 -118.360976 69 749ft 0kts
23-Oct-21 18:23 34.207788 -118.360976 69 749ft 0kts
23-Oct-21 18:24 34.207788 -118.360976 69 749ft 0kts
23-Oct-21 18:25 34.207949 -118.360744 131 750ft 0kts
23-Oct-21 18:26 34.208173 -118.360467 357 750ft 3kts
23-Oct-21 18:27 34.209058 -118.360706 348 755ft 5kts
23-Oct-21 18:28 34.209363 -118.360687 45 757ft 0kts
23-Oct-21 18:29 34.209363 -118.360687 45 757ft 0kts
23-Oct-21 18:30 34.209387 -118.359856 130 757ft 16kts
23-Oct-21 18:31 34.201140 -118.357521 171 952ft 88kts
23-Oct-21 18:32 34.191140 -118.350874 95 1888ft 86kts
23-Oct-21 18:33 34.200101 -118.333794 50 2515ft 127kts
23-Oct-21 18:34 34.217488 -118.314798 32 2929ft 152kts
23-Oct-21 18:35 34.216469 -118.294569 151 3385ft 168kts
23-Oct-21 18:36 34.189591 -118.282812 147 2640ft 182kts
23-Oct-21 18:37 34.172383 -118.264096 133 2168ft 142kts
23-Oct-21 18:38 34.160389 -118.244973 115 2130ft 130kts
23-Oct-21 18:39 34.154976 -118.225009 96 2648ft 129kts
23-Oct-21 18:40 34.154374 -118.204918 84 3384ft 111kts
23-Oct-21 18:41 34.157472 -118.184721 82 3671ft 135kts
23-Oct-21 18:42 34.149273 -118.163671 123 3658ft 146kts
23-Oct-21 18:43 34.138024 -118.143115 121 3689ft 147kts
23-Oct-21 18:44 34.127097 -118.122203 121 3692ft 146kts
23-Oct-21 18:45 34.116091 -118.101131 121 3679ft 148kts
23-Oct-21 18:46 34.105087 -118.080057 121 3679ft 149kts
23-Oct-21 18:47 34.094079 -118.058967 121 3650ft 150kts
23-Oct-21 18:48 34.083146 -118.038018 121 3661ft 148kts
23-Oct-21 18:49 34.072141 -118.016940 121 3646ft 149kts
23-Oct-21 18:50 34.055320 -117.999289 145 3577ft 163kts
23-Oct-21 18:51 34.036430 -117.985288 148 3080ft 131kts
23-Oct-21 18:52 34.019442 -117.976503 154 2413ft 123kts
23-Oct-21 18:53 34.000529 -117.970980 171 1731ft 113kts
23-Oct-21 18:54 33.982337 -117.967953 171 1792ft 135kts
23-Oct-21 18:55 33.959946 -117.972876 214 1761ft 162kts
23-Oct-21 18:56 33.940772 -117.995173 218 1326ft 182kts
23-Oct-21 18:57 33.921103 -118.016002 232 984ft 149kts
23-Oct-21 18:58 33.903373 -118.026448 190 930ft 132kts
23-Oct-21 18:59 33.882183 -118.030923 186 1316ft 139kts
23-Oct-21 19:00 33.860030 -118.032680 183 1005ft 178kts
23-Oct-21 19:01 33.835037 -118.029634 153 1147ft 166kts
23-Oct-21 19:02 33.817974 -118.014726 96 761ft 138kts
23-Oct-21 19:03 33.823109 -117.993303 72 841ft 141kts
23-Oct-21 19:04 33.828734 -117.971272 71 778ft 155kts
23-Oct-21 19:05 33.834397 -117.950616 71 1214ft 94kts
23-Oct-21 19:06 33.838465 -117.938156 57 1018ft 82kts
23-Oct-21 19:07 33.849055 -117.937171 332 737ft 104kts
23-Oct-21 19:08 33.861797 -117.942709 341 1096ft 104kts
23-Oct-21 19:09 33.873135 -117.948925 304 723ft 88kts
23-Oct-21 19:10 33.874660 -117.964108 261 352ft 86kts
23-Oct-21 19:11 33.872057 -117.979905 258 102ft 72kts
23-Oct-21 19:12 33.870669 -117.985473 224 88ft 0kts
23-Oct-21 19:13 33.870803 -117.985237 41 88ft 0kts
23-Oct-21 19:14 33.870619 -117.984473 124 88ft 7kts
23-Oct-21 19:15 33.870372 -117.984137 175 89ft 0kts
23-Oct-21 19:16 33.870372 -117.984137 175 89ft 0kts

Navigation Log

Ident Type
Flight plan parsing failed, navigation log unavailable